createdAt,value
2023-03-25T00:00:18.327Z,7.60
2023-03-25T00:02:49.657Z,7.60
2023-03-25T00:05:20.393Z,7.50
2023-03-25T00:07:51.108Z,7.50
2023-03-25T00:10:18.883Z,7.50
2023-03-25T00:12:46.062Z,7.60
2023-03-25T00:15:13.942Z,7.60
2023-03-25T00:17:41.103Z,7.60
2023-03-25T00:20:10.242Z,7.50
2023-03-25T00:22:41.499Z,7.50
2023-03-25T00:25:19.359Z,7.40
2023-03-25T00:27:49.066Z,7.20
2023-03-25T00:30:18.208Z,7.10
2023-03-25T00:32:49.936Z,7.10
2023-03-25T00:35:19.770Z,7.00
2023-03-25T00:37:48.271Z,7.00
2023-03-25T00:40:15.362Z,7.00
2023-03-25T00:42:45.081Z,6.90
2023-03-25T00:45:15.164Z,6.90
2023-03-25T00:47:43.108Z,6.90
2023-03-25T00:50:10.825Z,6.80
2023-03-25T00:52:38.028Z,6.70
2023-03-25T00:55:05.836Z,6.70
2023-03-25T00:57:32.888Z,6.70
2023-03-25T01:00:00.360Z,6.80
2023-03-25T01:02:27.592Z,6.60
2023-03-25T01:04:55.148Z,6.70
2023-03-25T01:07:22.175Z,6.70
2023-03-25T01:09:49.298Z,6.70
2023-03-25T01:12:19.023Z,6.70
2023-03-25T01:14:46.237Z,6.70
2023-03-25T01:17:13.235Z,6.70
2023-03-25T01:19:40.511Z,6.70
2023-03-25T01:22:07.894Z,6.70
2023-03-25T01:24:35.010Z,6.70
2023-03-25T01:27:02.153Z,6.60
2023-03-25T01:29:29.355Z,6.60
2023-03-25T01:31:57.190Z,6.60
2023-03-25T01:34:24.633Z,6.60
2023-03-25T01:36:56.009Z,6.60
2023-03-25T01:39:23.118Z,6.50
2023-03-25T01:41:51.559Z,6.60
2023-03-25T01:44:24.449Z,6.60
2023-03-25T01:46:56.512Z,6.60
2023-03-25T01:49:31.545Z,6.60
2023-03-25T01:52:04.988Z,6.60
2023-03-25T01:54:32.970Z,6.60
2023-03-25T01:57:00.526Z,6.60
2023-03-25T01:59:29.538Z,6.50
2023-03-25T02:02:02.504Z,6.50
2023-03-25T02:04:40.569Z,6.50
2023-03-25T02:07:10.987Z,6.50
2023-03-25T02:09:39.151Z,6.50
2023-03-25T02:12:06.190Z,6.50
2023-03-25T02:14:36.362Z,6.40
2023-03-25T02:17:33.977Z,6.40
2023-03-25T02:20:24.302Z,6.40
2023-03-25T02:23:04.697Z,6.40
2023-03-25T02:25:55.008Z,6.40
2023-03-25T02:28:37.172Z,6.40
2023-03-25T02:31:10.008Z,6.40
2023-03-25T02:34:09.748Z,6.40
2023-03-25T02:37:03.420Z,6.40
2023-03-25T02:39:48.610Z,6.40
2023-03-25T02:42:34.846Z,6.40
2023-03-25T02:45:09.577Z,6.40
2023-03-25T02:47:44.627Z,6.40
2023-03-25T02:50:46.363Z,6.40
2023-03-25T02:53:21.018Z,6.40
2023-03-25T02:55:51.427Z,6.40
2023-03-25T02:58:21.725Z,6.40
2023-03-25T03:00:50.639Z,6.30
2023-03-25T03:03:18.311Z,6.30
2023-03-25T03:05:50.019Z,6.30
2023-03-25T03:08:27.278Z,6.30
2023-03-25T03:11:17.660Z,6.20
2023-03-25T03:14:06.665Z,6.20
2023-03-25T03:16:39.577Z,6.10
2023-03-25T03:19:21.360Z,6.20
2023-03-25T03:21:57.244Z,6.20
2023-03-25T03:24:41.289Z,6.10
2023-03-25T03:27:12.270Z,6.10
2023-03-25T03:29:49.628Z,6.10
2023-03-25T03:32:49.999Z,6.10
2023-03-25T03:35:27.833Z,6.10
2023-03-25T03:38:09.657Z,6.10
2023-03-25T03:40:39.198Z,6.10
2023-03-25T03:43:33.671Z,6.20
2023-03-25T03:46:06.317Z,6.10
2023-03-25T03:48:45.386Z,6.10
2023-03-25T03:51:18.775Z,6.10
2023-03-25T03:53:58.516Z,6.10
2023-03-25T03:56:38.958Z,6.10
2023-03-25T03:59:14.724Z,6.10
2023-03-25T04:01:48.492Z,6.10
2023-03-25T04:04:27.130Z,6.10
2023-03-25T04:07:19.988Z,6.10
2023-03-25T04:10:02.839Z,6.10
2023-03-25T04:12:47.962Z,6.00
2023-03-25T04:15:16.185Z,6.10
2023-03-25T04:17:43.213Z,6.00
2023-03-25T04:20:15.001Z,6.00
2023-03-25T04:22:45.844Z,6.00
2023-03-25T04:25:14.252Z,6.00
2023-03-25T04:27:41.335Z,6.00
2023-03-25T04:30:09.376Z,5.90
2023-03-25T04:32:36.473Z,5.90
2023-03-25T04:35:04.115Z,5.90
2023-03-25T04:37:34.047Z,5.90
2023-03-25T04:40:01.197Z,5.90
2023-03-25T04:42:33.317Z,5.90
2023-03-25T04:45:00.972Z,5.90
2023-03-25T04:47:28.396Z,5.90
2023-03-25T04:49:55.774Z,5.90
2023-03-25T04:52:22.728Z,5.80
2023-03-25T04:54:49.933Z,5.80
2023-03-25T04:57:16.904Z,5.80
2023-03-25T04:59:44.104Z,5.80
2023-03-25T05:02:13.699Z,5.70
2023-03-25T05:04:47.475Z,5.70
2023-03-25T05:07:16.520Z,5.70
2023-03-25T05:09:44.150Z,5.70
2023-03-25T05:12:11.761Z,5.70
2023-03-25T05:14:38.750Z,5.70
2023-03-25T05:17:05.810Z,5.60
2023-03-25T05:19:35.499Z,5.70
2023-03-25T05:22:03.524Z,5.60
2023-03-25T05:24:30.970Z,5.60
2023-03-25T05:26:58.019Z,5.60
2023-03-25T05:29:25.139Z,5.60
2023-03-25T05:31:52.299Z,5.50
2023-03-25T05:34:20.777Z,5.50
2023-03-25T05:36:47.826Z,5.50
2023-03-25T05:39:15.667Z,5.50
2023-03-25T05:41:45.749Z,5.40
2023-03-25T05:44:19.053Z,5.30
2023-03-25T05:46:46.000Z,5.30
2023-03-25T05:49:12.912Z,5.30
2023-03-25T05:51:40.062Z,5.20
2023-03-25T05:54:11.824Z,5.20
2023-03-25T05:56:39.743Z,5.20
2023-03-25T05:59:08.407Z,5.20
2023-03-25T06:01:38.065Z,5.20
2023-03-25T06:04:05.605Z,5.20
2023-03-25T06:06:34.478Z,5.20
2023-03-25T06:09:03.029Z,5.20
2023-03-25T06:11:30.634Z,5.20
2023-03-25T06:13:57.613Z,5.20
2023-03-25T06:16:30.042Z,5.30
2023-03-25T06:19:01.705Z,5.20
2023-03-25T06:21:33.541Z,5.30
2023-03-25T06:24:02.209Z,5.30
2023-03-25T06:26:30.040Z,5.30
2023-03-25T06:28:58.202Z,5.30
2023-03-25T06:31:33.932Z,5.30
2023-03-25T06:34:01.584Z,5.30
2023-03-25T06:36:28.792Z,5.20
2023-03-25T06:38:55.783Z,5.30
2023-03-25T06:41:26.102Z,5.20
2023-03-25T06:43:53.536Z,5.20
2023-03-25T06:46:20.917Z,5.20
2023-03-25T06:48:48.079Z,5.20
2023-03-25T06:51:15.011Z,5.20
2023-03-25T06:53:42.218Z,5.20
2023-03-25T06:56:09.471Z,5.10
2023-03-25T06:58:36.600Z,5.20
2023-03-25T07:01:07.503Z,5.20
2023-03-25T07:03:39.120Z,5.20
2023-03-25T07:06:06.564Z,5.20
2023-03-25T07:08:34.000Z,5.20
2023-03-25T07:11:02.455Z,5.20
2023-03-25T07:13:31.162Z,5.30
2023-03-25T07:15:59.203Z,5.30
2023-03-25T07:18:26.621Z,5.30
2023-03-25T07:20:53.980Z,5.40
2023-03-25T07:23:21.137Z,5.40
2023-03-25T07:25:48.507Z,5.40
2023-03-25T07:28:16.214Z,5.50
2023-03-25T07:30:43.282Z,5.40
2023-03-25T07:33:10.280Z,5.50
2023-03-25T07:35:37.503Z,5.50
2023-03-25T07:38:04.535Z,5.50
2023-03-25T07:40:31.828Z,5.50
2023-03-25T07:42:58.951Z,5.60
2023-03-25T07:45:26.114Z,5.60
2023-03-25T07:47:53.888Z,5.60
2023-03-25T07:50:24.541Z,5.60
2023-03-25T07:52:53.584Z,5.70
2023-03-25T07:55:21.306Z,5.70
2023-03-25T07:57:48.310Z,5.70
2023-03-25T08:00:15.468Z,5.70
2023-03-25T08:02:42.576Z,5.70
2023-03-25T08:05:10.253Z,5.70
2023-03-25T08:07:37.286Z,5.80
2023-03-25T08:10:04.510Z,5.80
2023-03-25T08:12:31.470Z,5.80
2023-03-25T08:15:00.145Z,5.80
2023-03-25T08:17:27.269Z,5.90
2023-03-25T08:19:54.258Z,5.90
2023-03-25T08:22:21.237Z,5.90
2023-03-25T08:24:48.330Z,5.80
2023-03-25T08:27:16.394Z,5.80
2023-03-25T08:29:44.960Z,5.80
2023-03-25T08:32:12.064Z,5.90
2023-03-25T08:34:40.228Z,5.90
2023-03-25T08:37:11.273Z,5.90
2023-03-25T08:39:40.310Z,5.90
2023-03-25T08:42:08.717Z,6.00
2023-03-25T08:44:35.847Z,6.00
2023-03-25T08:47:03.022Z,6.00
2023-03-25T08:49:30.155Z,6.00
2023-03-25T08:51:59.430Z,6.00
2023-03-25T08:54:27.345Z,6.10
2023-03-25T08:56:54.715Z,6.10
2023-03-25T08:59:21.882Z,6.10
2023-03-25T09:01:48.944Z,6.10
2023-03-25T09:04:16.414Z,6.10
2023-03-25T09:06:48.031Z,6.10
2023-03-25T09:09:30.842Z,6.00
2023-03-25T09:11:57.997Z,6.10
2023-03-25T09:14:25.650Z,6.10
2023-03-25T09:16:52.768Z,6.10
2023-03-25T09:19:19.741Z,6.10
2023-03-25T09:21:46.803Z,6.10
2023-03-25T09:24:14.026Z,6.10
2023-03-25T09:26:41.125Z,6.10
2023-03-25T09:29:08.257Z,6.10
2023-03-25T09:31:35.944Z,6.10
2023-03-25T09:34:03.341Z,6.20
2023-03-25T09:36:32.322Z,6.30
2023-03-25T09:38:59.304Z,6.40
2023-03-25T09:41:54.342Z,6.30
2023-03-25T09:44:52.577Z,6.40
2023-03-25T09:47:21.622Z,6.40
2023-03-25T09:49:53.842Z,6.40
2023-03-25T09:52:51.148Z,6.40
2023-03-25T09:55:25.341Z,6.40
2023-03-25T09:58:14.901Z,6.40
2023-03-25T10:00:42.544Z,6.50
2023-03-25T10:03:28.675Z,6.50
2023-03-25T10:06:21.606Z,6.60
2023-03-25T10:09:10.389Z,7.10
2023-03-25T10:11:48.385Z,7.90
2023-03-25T10:14:30.964Z,8.40
2023-03-25T10:17:37.713Z,8.60
2023-03-25T10:20:20.764Z,8.90
2023-03-25T10:23:15.641Z,9.70
2023-03-25T10:25:48.283Z,10.70
2023-03-25T10:28:20.771Z,11.40
2023-03-25T10:30:52.440Z,11.60
2023-03-25T10:33:44.278Z,11.70
2023-03-25T10:36:19.251Z,11.40
2023-03-25T10:38:51.484Z,11.10
2023-03-25T10:41:28.615Z,10.80
2023-03-25T10:43:55.647Z,10.50
2023-03-25T10:46:28.846Z,10.40
2023-03-25T10:48:55.886Z,10.10
2023-03-25T10:51:30.758Z,9.80
2023-03-25T10:53:59.671Z,9.60
2023-03-25T10:56:32.862Z,9.40
2023-03-25T10:59:05.374Z,9.20
2023-03-25T11:01:39.045Z,9.00
2023-03-25T11:04:09.440Z,8.90
2023-03-25T11:06:41.884Z,8.90
2023-03-25T11:09:15.612Z,8.80
2023-03-25T11:11:43.763Z,8.60
2023-03-25T11:14:12.002Z,8.60
2023-03-25T11:16:54.282Z,8.50
2023-03-25T11:19:46.819Z,8.40
2023-03-25T11:22:19.309Z,8.50
2023-03-25T11:24:50.794Z,8.50
2023-03-25T11:27:23.027Z,8.50
2023-03-25T11:30:03.168Z,8.50
2023-03-25T11:32:38.929Z,8.40
2023-03-25T11:35:27.332Z,8.40
2023-03-25T11:38:00.176Z,8.40
2023-03-25T11:40:29.988Z,8.30
2023-03-25T11:43:00.134Z,8.30
2023-03-25T11:45:35.499Z,8.20
2023-03-25T11:48:11.727Z,8.40
2023-03-25T11:50:38.915Z,8.50
2023-03-25T11:53:06.888Z,8.70
2023-03-25T11:55:46.929Z,9.30
2023-03-25T11:58:19.805Z,10.10
2023-03-25T12:00:51.855Z,10.40
2023-03-25T12:03:26.789Z,10.60
2023-03-25T12:06:06.447Z,10.40
2023-03-25T12:08:48.824Z,10.60
2023-03-25T12:11:27.404Z,10.70
2023-03-25T12:14:26.152Z,10.70
2023-03-25T12:16:59.342Z,10.70
2023-03-25T12:19:26.446Z,10.90
2023-03-25T12:21:59.424Z,11.10
2023-03-25T12:25:15.480Z,11.20
2023-03-25T12:27:53.769Z,11.10
2023-03-25T12:30:36.378Z,11.60
2023-03-25T12:33:30.661Z,11.30
2023-03-25T12:36:15.189Z,11.10
2023-03-25T12:39:14.916Z,11.20
2023-03-25T12:42:03.319Z,10.80
2023-03-25T12:44:48.095Z,10.40
2023-03-25T12:47:17.780Z,9.80
2023-03-25T12:49:52.262Z,9.40
2023-03-25T12:52:33.431Z,9.00
2023-03-25T12:55:18.855Z,8.80
2023-03-25T12:58:30.509Z,8.60
2023-03-25T13:01:19.644Z,8.70
2023-03-25T13:03:59.636Z,8.60
2023-03-25T13:06:42.153Z,8.60
2023-03-25T13:09:36.692Z,8.70
2023-03-25T13:12:27.334Z,8.80
2023-03-25T13:15:27.265Z,8.80
2023-03-25T13:18:08.988Z,9.00
2023-03-25T13:20:43.984Z,9.10
2023-03-25T13:23:17.821Z,9.20
2023-03-25T13:26:23.294Z,9.30
2023-03-25T13:28:50.201Z,9.50
2023-03-25T13:31:27.781Z,9.60
2023-03-25T13:34:18.006Z,9.70
2023-03-25T13:36:58.031Z,9.80
2023-03-25T13:39:41.773Z,9.90
2023-03-25T13:42:21.257Z,10.20
2023-03-25T13:44:51.697Z,10.30
2023-03-25T13:47:25.622Z,10.40
2023-03-25T13:50:13.600Z,10.50
2023-03-25T13:52:45.639Z,10.40
2023-03-25T13:55:23.018Z,10.40
2023-03-25T13:58:20.719Z,10.40
2023-03-25T14:01:28.985Z,10.40
2023-03-25T14:04:20.057Z,10.20
2023-03-25T14:07:16.219Z,10.20
2023-03-25T14:09:49.664Z,10.10
2023-03-25T14:12:24.402Z,10.40
2023-03-25T14:14:58.355Z,10.50
2023-03-25T14:17:26.869Z,10.60
2023-03-25T14:19:58.601Z,10.70
2023-03-25T14:22:37.006Z,10.70
2023-03-25T14:25:04.197Z,10.70
2023-03-25T14:27:37.604Z,10.70
2023-03-25T14:30:34.762Z,10.70
2023-03-25T14:33:03.379Z,10.80
2023-03-25T14:35:33.970Z,10.60
2023-03-25T14:38:10.050Z,10.30
2023-03-25T14:40:47.946Z,10.00
2023-03-25T14:43:34.257Z,9.70
2023-03-25T14:46:10.860Z,9.60
2023-03-25T14:48:47.900Z,9.40
2023-03-25T14:51:23.598Z,9.20
2023-03-25T14:54:04.006Z,9.10
2023-03-25T14:56:41.895Z,9.10
2023-03-25T14:59:14.191Z,9.00
2023-03-25T15:01:43.568Z,8.90
2023-03-25T15:04:30.856Z,8.80
2023-03-25T15:06:59.649Z,8.70
2023-03-25T15:09:30.079Z,8.60
2023-03-25T15:12:05.809Z,8.50
2023-03-25T15:14:39.217Z,8.40
2023-03-25T15:17:39.852Z,8.40
2023-03-25T15:20:10.732Z,8.50
2023-03-25T15:22:38.254Z,8.60
2023-03-25T15:25:20.369Z,9.00
2023-03-25T15:28:01.893Z,9.40
2023-03-25T15:30:39.650Z,9.80
2023-03-25T15:33:39.527Z,9.80
2023-03-25T15:36:33.358Z,9.90
2023-03-25T15:39:25.109Z,9.90
2023-03-25T15:42:32.942Z,10.10
2023-03-25T15:45:23.402Z,10.20
2023-03-25T15:48:12.086Z,10.00
2023-03-25T15:51:08.467Z,10.10
2023-03-25T15:54:00.760Z,10.10
2023-03-25T15:56:37.257Z,10.30
2023-03-25T15:59:16.260Z,10.40
2023-03-25T16:01:46.438Z,10.10
2023-03-25T16:04:44.241Z,9.80
2023-03-25T16:07:15.726Z,9.30
2023-03-25T16:09:48.468Z,8.90
2023-03-25T16:12:26.177Z,8.50
2023-03-25T16:14:53.505Z,8.20
2023-03-25T16:17:22.966Z,8.00
2023-03-25T16:19:54.749Z,7.70
2023-03-25T16:22:33.577Z,7.40
2023-03-25T16:25:08.677Z,7.40
2023-03-25T16:27:41.807Z,7.60
2023-03-25T16:30:19.738Z,7.60
2023-03-25T16:32:46.869Z,7.80
2023-03-25T16:35:28.226Z,7.90
2023-03-25T16:37:59.780Z,8.00
2023-03-25T16:40:36.300Z,8.00
2023-03-25T16:43:06.666Z,8.00
2023-03-25T16:45:35.874Z,8.00
2023-03-25T16:48:07.648Z,8.00
2023-03-25T16:50:35.892Z,7.90
2023-03-25T16:53:03.334Z,7.90
2023-03-25T16:55:41.945Z,7.80
2023-03-25T16:58:25.963Z,7.80
2023-03-25T17:00:55.957Z,7.80
2023-03-25T17:03:43.732Z,7.80
2023-03-25T17:06:19.806Z,7.70
2023-03-25T17:08:51.221Z,7.70
2023-03-25T17:11:18.290Z,7.60
2023-03-25T17:13:52.539Z,7.60
2023-03-25T17:16:21.571Z,7.50
2023-03-25T17:18:51.608Z,7.50
2023-03-25T17:21:31.221Z,7.40
2023-03-25T17:24:24.486Z,7.40
2023-03-25T17:26:57.764Z,7.30
2023-03-25T17:29:24.807Z,7.30
2023-03-25T17:31:57.724Z,7.30
2023-03-25T17:34:30.739Z,7.20
2023-03-25T17:37:00.710Z,7.20
2023-03-25T17:39:30.986Z,7.10
2023-03-25T17:42:01.770Z,7.00
2023-03-25T17:44:49.398Z,7.00
2023-03-25T17:47:18.520Z,7.00
2023-03-25T17:49:45.964Z,6.90
2023-03-25T17:52:13.433Z,6.90
2023-03-25T17:54:40.744Z,6.90
2023-03-25T17:57:14.316Z,6.90
2023-03-25T17:59:41.331Z,6.90
2023-03-25T18:02:16.202Z,6.90
2023-03-25T18:04:44.191Z,6.80
2023-03-25T18:07:11.279Z,6.70
2023-03-25T18:09:39.678Z,6.70
2023-03-25T18:12:06.837Z,6.60
2023-03-25T18:14:35.206Z,6.50
2023-03-25T18:17:04.157Z,6.50
2023-03-25T18:19:32.200Z,6.50
2023-03-25T18:22:13.911Z,6.50
2023-03-25T18:24:47.202Z,6.50
2023-03-25T18:27:14.448Z,6.40
2023-03-25T18:29:42.195Z,6.40
2023-03-25T18:32:09.489Z,6.30
2023-03-25T18:34:36.586Z,6.40
2023-03-25T18:37:03.609Z,6.40
2023-03-25T18:39:32.516Z,6.40
2023-03-25T18:41:59.591Z,6.30
2023-03-25T18:44:28.729Z,6.30
2023-03-25T18:46:55.738Z,6.20
2023-03-25T18:49:23.092Z,6.20
2023-03-25T18:51:50.065Z,6.20
2023-03-25T18:54:18.536Z,6.10
2023-03-25T18:56:46.057Z,6.10
2023-03-25T18:59:21.708Z,6.10
2023-03-25T19:01:48.937Z,6.10
2023-03-25T19:04:16.980Z,6.00
2023-03-25T19:06:44.348Z,5.90
2023-03-25T19:09:22.870Z,5.90
2023-03-25T19:11:50.071Z,5.90
2023-03-25T19:14:17.021Z,5.90
2023-03-25T19:16:57.082Z,5.90
2023-03-25T19:19:28.638Z,5.80
2023-03-25T19:21:58.455Z,5.70
2023-03-25T19:24:25.536Z,5.70
2023-03-25T19:26:52.706Z,5.70
2023-03-25T19:29:19.846Z,5.70
2023-03-25T19:31:47.013Z,5.60
2023-03-25T19:34:14.329Z,5.60
2023-03-25T19:36:41.504Z,5.60
2023-03-25T19:39:10.793Z,5.60
2023-03-25T19:41:42.792Z,5.70
2023-03-25T19:44:10.032Z,5.60
2023-03-25T19:46:37.238Z,5.60
2023-03-25T19:49:04.354Z,5.60
2023-03-25T19:51:32.049Z,5.60
2023-03-25T19:53:59.013Z,5.60
2023-03-25T19:56:26.317Z,5.50
2023-03-25T19:58:53.752Z,5.60
2023-03-25T20:01:22.710Z,5.50
2023-03-25T20:03:50.179Z,5.60
2023-03-25T20:06:17.153Z,5.60
2023-03-25T20:08:44.280Z,5.60
2023-03-25T20:11:12.391Z,5.60
2023-03-25T20:13:39.436Z,5.60
2023-03-25T20:16:07.120Z,5.50
2023-03-25T20:18:34.326Z,5.50
2023-03-25T20:21:01.303Z,5.50
2023-03-25T20:23:28.518Z,5.50
2023-03-25T20:25:55.683Z,5.60
2023-03-25T20:28:23.081Z,5.50
2023-03-25T20:30:50.252Z,5.50
2023-03-25T20:33:17.990Z,5.50
2023-03-25T20:35:45.959Z,5.50
2023-03-25T20:38:14.484Z,5.40
2023-03-25T20:40:45.065Z,5.40
2023-03-25T20:43:14.060Z,5.50
2023-03-25T20:45:41.915Z,5.50
2023-03-25T20:48:09.180Z,5.50
2023-03-25T20:50:36.298Z,5.50
2023-03-25T20:53:04.570Z,5.50
2023-03-25T20:55:32.124Z,5.50
2023-03-25T20:58:00.991Z,5.40
2023-03-25T21:00:28.050Z,5.40
2023-03-25T21:02:55.851Z,5.40
2023-03-25T21:05:23.265Z,5.40
2023-03-25T21:07:51.190Z,5.40
2023-03-25T21:10:20.334Z,5.40
2023-03-25T21:12:48.113Z,5.30
2023-03-25T21:15:15.446Z,5.30
2023-03-25T21:17:43.179Z,5.30
2023-03-25T21:20:11.480Z,5.30
2023-03-25T21:22:44.709Z,5.30
2023-03-25T21:25:14.394Z,5.30
2023-03-25T21:27:42.675Z,5.30
2023-03-25T21:30:10.455Z,5.30
2023-03-25T21:32:40.694Z,5.20
2023-03-25T21:35:09.306Z,5.20
2023-03-25T21:37:40.327Z,5.20
2023-03-25T21:40:11.190Z,5.20
2023-03-25T21:42:41.295Z,5.20
2023-03-25T21:45:11.029Z,5.20
2023-03-25T21:47:38.188Z,5.20
2023-03-25T21:50:10.153Z,5.10
2023-03-25T21:52:47.095Z,5.10
2023-03-25T21:55:16.325Z,5.00
2023-03-25T21:57:47.910Z,4.90
2023-03-25T22:00:17.733Z,4.90
2023-03-25T22:02:46.482Z,4.80
2023-03-25T22:05:16.217Z,4.70
2023-03-25T22:07:43.584Z,4.60
2023-03-25T22:10:11.539Z,4.60
2023-03-25T22:12:39.182Z,4.60
2023-03-25T22:15:07.228Z,4.50
2023-03-25T22:17:34.507Z,4.40
2023-03-25T22:20:01.648Z,4.30
2023-03-25T22:22:30.267Z,4.20
2023-03-25T22:24:57.537Z,4.10
2023-03-25T22:27:24.548Z,3.90
2023-03-25T22:29:51.658Z,3.90
2023-03-25T22:32:18.908Z,3.90
2023-03-25T22:34:45.872Z,3.90
2023-03-25T22:37:12.818Z,3.70
2023-03-25T22:39:39.954Z,3.70
2023-03-25T22:42:07.176Z,3.70
2023-03-25T22:44:34.118Z,3.80
2023-03-25T22:47:01.814Z,3.70
2023-03-25T22:49:29.254Z,3.70
2023-03-25T22:51:56.236Z,3.60
2023-03-25T22:54:23.833Z,3.60
2023-03-25T22:56:51.095Z,3.60
2023-03-25T22:59:18.139Z,3.50
2023-03-25T23:01:45.615Z,3.50
2023-03-25T23:04:12.852Z,3.50
2023-03-25T23:06:41.864Z,3.40
2023-03-25T23:09:10.674Z,3.40
2023-03-25T23:11:38.867Z,3.40
2023-03-25T23:14:08.925Z,3.40
2023-03-25T23:16:37.017Z,3.30
2023-03-25T23:19:06.341Z,3.30
2023-03-25T23:21:34.532Z,3.20
2023-03-25T23:24:04.144Z,3.20
2023-03-25T23:26:40.443Z,3.20
2023-03-25T23:29:10.342Z,3.20
2023-03-25T23:31:41.889Z,3.20
2023-03-25T23:34:11.224Z,3.20
2023-03-25T23:36:39.623Z,3.20
2023-03-25T23:39:08.846Z,3.20
2023-03-25T23:41:36.289Z,3.20
2023-03-25T23:44:04.716Z,3.30
2023-03-25T23:46:32.359Z,3.10
2023-03-25T23:49:02.930Z,3.10
2023-03-25T23:51:34.233Z,3.10
2023-03-25T23:54:02.507Z,3.10
2023-03-25T23:56:30.440Z,3.10
2023-03-25T23:58:59.125Z,3.00
